Hauptseite
METAR-TAF:

METAR-TAF

Flughäfen :

Lydd, England

Breite: 50-57N, Länge: 000-56E, Höhe: 3 m

Beobachtung

Neuester Wetterbericht von vor 35 Minuten, um 00:20 UTC
Wind 5 kt aus Nord/Nordwest
Temperatur 12°C
Luftfeuchtigkeit 82%
Luftdruck 1000 hPa
Sichtweite 10 km oder mehr

METAR: EGMD 230020Z AUTO 33005KT 9999 NCD 12/09 Q1000

Zeit: 01:55 (00:55 UTC)

Prognose

Neuester Wetterbericht von vor 1 Stunde und 59 Minuten, um 22:56 UTC
Gültige Prognose vom 23 um 00 UTC bis 23 um 09 UTC
Wind 6 kt aus Nord/Nordost
Sichtweite 10 km oder mehr
keine Wolken unter 1500 m und keine Kumulonimbus oder Gewitterwolken
Wahrscheinlichkeit 40% :
Zeitweise
vom 23 um 00 UTC bis 23 um 09 UTC
Sichtweite: 8000 m

TAF: EGMD 222256Z 2300/2309 02006KT CAVOK PROB40 TEMPO 2300/2309 8000

Wetterbeobachtungen und Prognosen von mehr als 4000 Flughäfen (METAR und TAF Bericht).

Die verfügbaren Stationen werden durch gelbe und rote Markierungen auf der Karte dargestellt.

Führen Sie die Maus auf sie, um den Namen der Station zu sehen.

Darauf klicken, um die Beobachtung von Wetterbeobachtungen und Prognosen zu sehen.

Um die Karte zu ändern : klicken Sie auf den grünen Tasten mit einem schwarzen Kreuz Zum Vergrößern, auf den grünen Button mit einem Gedankenstrich zu verkleinern, oder auf die grünen Pfeile für benachbarte Karten.


METAR-TAF: